createdAt,value
2023-03-29T00:02:09.625Z,20.50
2023-03-29T00:04:36.632Z,20.57
2023-03-29T00:07:04.990Z,21.77
2023-03-29T00:09:33.516Z,23.67
2023-03-29T00:12:01.415Z,19.87
2023-03-29T00:14:30.912Z,19.30
2023-03-29T00:16:59.016Z,20.13
2023-03-29T00:19:26.371Z,16.87
2023-03-29T00:21:53.184Z,21.80
2023-03-29T00:24:21.730Z,18.77
2023-03-29T00:26:48.705Z,17.83
2023-03-29T00:29:16.180Z,18.17
2023-03-29T00:31:44.708Z,15.97
2023-03-29T00:34:11.900Z,19.13
2023-03-29T00:36:40.733Z,14.60
2023-03-29T00:39:07.706Z,18.17
2023-03-29T00:41:34.801Z,16.77
2023-03-29T00:44:03.045Z,18.53
2023-03-29T00:46:31.384Z,19.87
2023-03-29T00:49:00.943Z,20.40
2023-03-29T00:51:30.124Z,21.93
2023-03-29T00:53:58.796Z,19.33
2023-03-29T00:56:30.028Z,21.73
2023-03-29T00:59:05.647Z,24.13
2023-03-29T01:01:55.221Z,18.20
2023-03-29T01:04:33.029Z,22.03
2023-03-29T01:07:02.830Z,24.20
2023-03-29T01:09:31.233Z,21.77
2023-03-29T01:12:00.775Z,27.53
2023-03-29T01:14:34.699Z,26.67
2023-03-29T01:17:02.294Z,20.87
2023-03-29T01:19:32.189Z,26.97
2023-03-29T01:22:09.813Z,26.60
2023-03-29T01:24:36.701Z,28.03
2023-03-29T01:27:34.467Z,25.03
2023-03-29T01:30:07.731Z,26.37
2023-03-29T01:32:38.782Z,26.03
2023-03-29T01:35:13.597Z,24.60
2023-03-29T01:37:46.101Z,27.60
2023-03-29T01:40:13.378Z,25.50
2023-03-29T01:42:51.553Z,27.33
2023-03-29T01:45:24.519Z,23.33
2023-03-29T01:48:00.819Z,23.97
2023-03-29T01:50:46.752Z,29.73
2023-03-29T01:53:20.481Z,25.10
2023-03-29T01:55:52.926Z,26.07
2023-03-29T01:58:22.654Z,22.43
2023-03-29T02:00:51.039Z,25.70
2023-03-29T02:03:19.084Z,25.27
2023-03-29T02:05:47.344Z,28.50
2023-03-29T02:08:15.639Z,22.80
2023-03-29T02:10:42.715Z,24.77
2023-03-29T02:13:11.326Z,22.80
2023-03-29T02:15:38.817Z,27.70
2023-03-29T02:18:06.844Z,23.00
2023-03-29T02:20:39.209Z,22.93
2023-03-29T02:23:21.492Z,29.17
2023-03-29T02:25:50.596Z,23.10
2023-03-29T02:28:17.645Z,24.37
2023-03-29T02:30:51.073Z,27.53
2023-03-29T02:33:22.479Z,25.77
2023-03-29T02:35:53.459Z,28.13
2023-03-29T02:38:21.233Z,30.47
2023-03-29T02:40:48.424Z,29.27
2023-03-29T02:43:16.815Z,29.07
2023-03-29T02:45:44.790Z,28.23
2023-03-29T02:48:16.412Z,26.30
2023-03-29T02:50:45.247Z,26.57
2023-03-29T02:53:17.201Z,26.40
2023-03-29T02:55:47.078Z,31.17
2023-03-29T02:58:15.693Z,28.00
2023-03-29T03:00:45.289Z,25.70
2023-03-29T03:03:13.322Z,29.03
2023-03-29T03:05:40.480Z,31.30
2023-03-29T03:08:07.639Z,25.93
2023-03-29T03:10:35.327Z,24.03
2023-03-29T03:13:04.196Z,28.63
2023-03-29T03:15:35.971Z,23.43
2023-03-29T03:18:03.918Z,29.07
2023-03-29T03:20:33.579Z,25.20
2023-03-29T03:23:01.348Z,27.00
2023-03-29T03:25:28.970Z,31.70
2023-03-29T03:27:56.032Z,26.00
2023-03-29T03:30:25.701Z,28.17
2023-03-29T03:32:55.318Z,30.53
2023-03-29T03:35:40.661Z,27.90
2023-03-29T03:38:07.629Z,27.87
2023-03-29T03:40:34.801Z,27.47
2023-03-29T03:43:02.437Z,36.47
2023-03-29T03:45:30.104Z,29.60
2023-03-29T03:48:15.852Z,28.13
2023-03-29T03:50:57.252Z,29.37
2023-03-29T03:53:27.475Z,27.60
2023-03-29T03:56:14.924Z,28.73
2023-03-29T03:59:05.688Z,25.80
2023-03-29T04:01:55.285Z,32.40
2023-03-29T04:04:24.976Z,35.73
2023-03-29T04:07:13.299Z,28.00
2023-03-29T04:09:58.585Z,24.50
2023-03-29T04:12:35.135Z,27.10
2023-03-29T04:15:02.456Z,23.23
2023-03-29T04:17:29.920Z,31.63
2023-03-29T04:20:10.488Z,35.73
2023-03-29T04:22:39.380Z,35.53
2023-03-29T04:25:06.887Z,32.00
2023-03-29T04:27:34.113Z,40.47
2023-03-29T04:30:05.882Z,36.77
2023-03-29T04:33:04.941Z,35.83
2023-03-29T04:35:33.635Z,36.60
2023-03-29T04:38:01.100Z,33.10
2023-03-29T04:40:29.292Z,30.43
2023-03-29T04:43:03.762Z,27.17
2023-03-29T04:45:31.643Z,37.60
2023-03-29T04:48:18.795Z,137.90
2023-03-29T04:50:46.832Z,132.43
2023-03-29T04:53:15.114Z,90.20
2023-03-29T04:55:43.718Z,72.13
2023-03-29T04:58:14.765Z,64.10
2023-03-29T05:00:43.189Z,77.77
2023-03-29T05:03:28.690Z,81.03
2023-03-29T05:06:07.214Z,137.10
2023-03-29T05:08:40.267Z,123.17
2023-03-29T05:11:13.908Z,103.47
2023-03-29T05:13:42.849Z,63.20
2023-03-29T05:16:11.348Z,58.63
2023-03-29T05:18:38.976Z,53.53
2023-03-29T05:21:06.648Z,66.17
2023-03-29T05:23:36.373Z,53.53
2023-03-29T05:26:23.256Z,36.10
2023-03-29T05:28:53.094Z,28.30
2023-03-29T05:31:20.398Z,27.23
2023-03-29T05:33:51.456Z,34.00
2023-03-29T05:36:19.408Z,30.53
2023-03-29T05:38:50.094Z,26.30
2023-03-29T05:41:19.100Z,25.77
2023-03-29T05:44:04.366Z,28.63
2023-03-29T05:46:31.815Z,27.00
2023-03-29T05:49:02.701Z,24.73
2023-03-29T05:52:02.634Z,30.00
2023-03-29T05:54:31.352Z,26.43
2023-03-29T05:56:58.738Z,34.27
2023-03-29T05:59:28.621Z,33.80
2023-03-29T06:01:55.923Z,28.97
2023-03-29T06:04:23.356Z,30.23
2023-03-29T06:07:04.879Z,29.67
2023-03-29T06:09:33.241Z,29.67
2023-03-29T06:12:04.297Z,26.90
2023-03-29T06:14:37.594Z,22.20
2023-03-29T06:17:19.213Z,26.13
2023-03-29T06:19:47.509Z,22.50
2023-03-29T06:22:15.101Z,22.03
2023-03-29T06:24:42.561Z,22.97
2023-03-29T06:27:17.920Z,22.73
2023-03-29T06:29:45.635Z,25.50
2023-03-29T06:32:12.834Z,30.03
2023-03-29T06:34:49.917Z,29.30
2023-03-29T06:37:29.442Z,29.63
2023-03-29T06:40:07.155Z,24.53
2023-03-29T06:42:40.943Z,27.07
2023-03-29T06:45:29.472Z,21.27
2023-03-29T06:47:58.765Z,21.63
2023-03-29T06:50:26.419Z,19.23
2023-03-29T06:53:08.078Z,15.77
2023-03-29T06:55:36.345Z,21.03
2023-03-29T06:58:24.472Z,15.77
2023-03-29T07:00:51.965Z,20.30
2023-03-29T07:03:28.120Z,15.40
2023-03-29T07:06:02.945Z,17.23
2023-03-29T07:08:32.616Z,14.93
2023-03-29T07:11:03.673Z,13.80
2023-03-29T07:13:49.457Z,16.17
2023-03-29T07:16:19.730Z,15.40
2023-03-29T07:19:10.023Z,13.87
2023-03-29T07:21:55.058Z,15.00
2023-03-29T07:24:30.758Z,11.63
2023-03-29T07:27:04.167Z,18.83
2023-03-29T07:29:32.933Z,13.67
2023-03-29T07:32:00.353Z,13.47
2023-03-29T07:34:52.256Z,13.93
2023-03-29T07:37:37.993Z,10.83
2023-03-29T07:40:19.189Z,11.93
2023-03-29T07:43:09.203Z,9.70
2023-03-29T07:45:37.151Z,15.73
2023-03-29T07:48:08.849Z,9.17
2023-03-29T07:50:48.413Z,10.13
2023-03-29T07:53:18.144Z,7.30
2023-03-29T07:55:47.825Z,8.20
2023-03-29T07:58:35.411Z,8.80
2023-03-29T08:01:02.603Z,5.50
2023-03-29T08:03:50.448Z,10.03
2023-03-29T08:06:17.903Z,9.83
2023-03-29T08:08:44.837Z,6.73
2023-03-29T08:11:15.462Z,6.67
2023-03-29T08:13:59.826Z,9.60
2023-03-29T08:16:27.019Z,7.87
2023-03-29T08:19:14.827Z,4.87
2023-03-29T08:22:01.961Z,6.67
2023-03-29T08:24:38.333Z,4.27
2023-03-29T08:27:07.560Z,4.47
2023-03-29T08:29:34.833Z,7.17
2023-03-29T08:32:01.842Z,5.27
2023-03-29T08:34:32.068Z,8.60
2023-03-29T08:37:22.119Z,5.03
2023-03-29T08:39:50.911Z,6.07
2023-03-29T08:42:36.995Z,5.47
2023-03-29T08:45:18.010Z,3.80
2023-03-29T08:47:51.629Z,5.27
2023-03-29T08:50:20.962Z,5.77
2023-03-29T08:52:50.867Z,9.37
2023-03-29T08:55:42.833Z,8.87
2023-03-29T08:58:48.234Z,5.07
2023-03-29T09:01:15.306Z,6.13
2023-03-29T09:04:13.004Z,6.93
2023-03-29T09:07:00.266Z,3.67
2023-03-29T09:09:34.815Z,3.40
2023-03-29T09:12:47.117Z,4.23
2023-03-29T09:15:20.886Z,4.80
2023-03-29T09:18:01.327Z,3.23
2023-03-29T09:20:28.437Z,4.80
2023-03-29T09:23:04.672Z,3.93
2023-03-29T09:25:54.080Z,3.87
2023-03-29T09:28:26.447Z,4.37
2023-03-29T09:31:06.462Z,4.83
2023-03-29T09:33:43.033Z,5.67
2023-03-29T09:36:28.495Z,4.87
2023-03-29T09:38:55.905Z,5.47
2023-03-29T09:41:37.079Z,7.17
2023-03-29T09:44:12.733Z,8.10
2023-03-29T09:46:52.747Z,6.57
2023-03-29T09:49:25.454Z,6.47
2023-03-29T09:51:54.697Z,5.43
2023-03-29T09:54:21.858Z,6.63
2023-03-29T09:57:03.753Z,5.20
2023-03-29T09:59:31.555Z,7.47
2023-03-29T10:02:18.774Z,4.03
2023-03-29T10:04:45.667Z,10.07
2023-03-29T10:07:20.782Z,4.97
2023-03-29T10:09:56.005Z,7.13
2023-03-29T10:12:23.378Z,5.83
2023-03-29T10:14:54.025Z,5.50
2023-03-29T10:17:25.568Z,4.30
2023-03-29T10:19:55.949Z,7.33
2023-03-29T10:22:23.984Z,7.80
2023-03-29T10:24:52.286Z,7.27
2023-03-29T10:27:22.514Z,6.00
2023-03-29T10:29:50.034Z,6.93
2023-03-29T10:32:18.693Z,5.33
2023-03-29T10:34:49.608Z,7.00
2023-03-29T10:37:20.430Z,6.30
2023-03-29T10:39:48.444Z,8.80
2023-03-29T10:42:17.013Z,5.93
2023-03-29T10:44:52.232Z,5.40
2023-03-29T10:47:20.535Z,4.80
2023-03-29T10:49:51.195Z,6.27
2023-03-29T10:52:18.450Z,8.20
2023-03-29T10:54:45.929Z,6.57
2023-03-29T10:57:16.119Z,7.13
2023-03-29T10:59:56.256Z,5.50
2023-03-29T11:02:35.524Z,6.47
2023-03-29T11:05:14.969Z,5.33
2023-03-29T11:08:08.972Z,5.07
2023-03-29T11:10:35.881Z,5.10
2023-03-29T11:13:02.742Z,5.83
2023-03-29T11:15:29.650Z,4.57
2023-03-29T11:18:22.672Z,5.17
2023-03-29T11:20:56.078Z,3.67
2023-03-29T11:23:26.745Z,5.30
2023-03-29T11:25:58.823Z,4.83
2023-03-29T11:28:25.688Z,6.37
2023-03-29T11:31:04.380Z,5.37
2023-03-29T11:33:37.890Z,5.23
2023-03-29T11:36:04.836Z,7.10
2023-03-29T11:38:35.826Z,5.63
2023-03-29T11:41:35.246Z,5.03
2023-03-29T11:44:09.524Z,6.67
2023-03-29T11:46:42.891Z,6.07
2023-03-29T11:49:21.600Z,7.07
2023-03-29T11:51:59.736Z,5.60
2023-03-29T11:54:34.728Z,4.67
2023-03-29T11:57:11.415Z,8.90
2023-03-29T11:59:41.229Z,8.33
2023-03-29T12:02:08.370Z,7.77
2023-03-29T12:04:38.858Z,10.37
2023-03-29T12:07:15.916Z,5.50
2023-03-29T12:09:52.043Z,5.77
2023-03-29T12:12:25.255Z,6.73
2023-03-29T12:15:12.368Z,6.70
2023-03-29T12:17:57.490Z,5.60
2023-03-29T12:20:28.453Z,7.07
2023-03-29T12:22:59.293Z,7.27
2023-03-29T12:25:49.338Z,6.53
2023-03-29T12:28:40.704Z,10.37
2023-03-29T12:31:21.081Z,8.40
2023-03-29T12:33:47.978Z,7.13
2023-03-29T12:37:12.382Z,6.83
2023-03-29T12:40:24.104Z,8.23
2023-03-29T12:43:23.583Z,5.83
2023-03-29T12:46:27.085Z,3.57
2023-03-29T12:48:58.083Z,6.10
2023-03-29T12:51:32.624Z,5.30
2023-03-29T12:54:07.544Z,7.67
2023-03-29T12:56:42.344Z,6.43
2023-03-29T12:59:27.286Z,7.13
2023-03-29T13:01:59.599Z,6.87
2023-03-29T13:04:37.563Z,9.27
2023-03-29T13:07:06.038Z,7.30
2023-03-29T13:09:36.322Z,8.30
2023-03-29T13:12:08.304Z,8.03
2023-03-29T13:14:37.528Z,6.37
2023-03-29T13:17:18.464Z,7.77
2023-03-29T13:19:54.143Z,8.67
2023-03-29T13:22:48.170Z,10.27
2023-03-29T13:25:15.099Z,5.63
2023-03-29T13:27:44.933Z,5.83
2023-03-29T13:30:22.652Z,5.03
2023-03-29T13:32:55.094Z,8.43
2023-03-29T13:35:34.315Z,6.83
2023-03-29T13:38:21.685Z,6.53
2023-03-29T13:40:52.133Z,8.47
2023-03-29T13:43:19.432Z,5.73
2023-03-29T13:45:52.320Z,6.03
2023-03-29T13:48:28.011Z,8.30
2023-03-29T13:50:56.705Z,8.10
2023-03-29T13:53:29.537Z,10.00
2023-03-29T13:55:57.869Z,6.00
2023-03-29T13:58:34.626Z,5.47
2023-03-29T14:01:07.601Z,6.77
2023-03-29T14:03:40.241Z,6.10
2023-03-29T14:06:07.420Z,6.47
2023-03-29T14:08:39.049Z,7.90
2023-03-29T14:11:07.577Z,7.03
2023-03-29T14:13:35.022Z,10.77
2023-03-29T14:16:04.708Z,13.23
2023-03-29T14:18:39.810Z,8.00
2023-03-29T14:21:07.240Z,8.00
2023-03-29T14:23:36.729Z,10.73
2023-03-29T14:26:07.082Z,8.20
2023-03-29T14:28:34.055Z,11.73
2023-03-29T14:31:01.273Z,8.03
2023-03-29T14:33:29.286Z,8.57
2023-03-29T14:35:57.331Z,6.93
2023-03-29T14:38:25.286Z,9.47
2023-03-29T14:40:52.292Z,7.17
2023-03-29T14:43:19.987Z,5.80
2023-03-29T14:45:47.544Z,8.83
2023-03-29T14:48:14.867Z,6.87
2023-03-29T14:50:42.805Z,10.60
2023-03-29T14:53:16.735Z,8.47
2023-03-29T14:55:44.828Z,10.43
2023-03-29T14:58:22.775Z,7.33
2023-03-29T15:00:50.856Z,9.73
2023-03-29T15:03:17.916Z,7.57
2023-03-29T15:05:50.376Z,7.80
2023-03-29T15:08:20.046Z,10.83
2023-03-29T15:10:47.236Z,7.83
2023-03-29T15:13:21.322Z,9.87
2023-03-29T15:15:51.339Z,11.97
2023-03-29T15:18:19.230Z,10.43
2023-03-29T15:20:46.214Z,11.73
2023-03-29T15:23:15.982Z,9.20
2023-03-29T15:25:53.154Z,7.53
2023-03-29T15:28:31.361Z,6.50
2023-03-29T15:31:07.404Z,9.07
2023-03-29T15:33:35.347Z,9.33
2023-03-29T15:36:03.136Z,7.97
2023-03-29T15:38:42.639Z,6.83
2023-03-29T15:41:11.766Z,8.87
2023-03-29T15:43:38.730Z,7.38
2023-03-29T15:46:05.806Z,11.20
2023-03-29T15:48:33.971Z,7.43
2023-03-29T15:51:05.745Z,8.50
2023-03-29T15:53:33.593Z,15.67
2023-03-29T15:56:01.811Z,8.37
2023-03-29T15:58:30.915Z,7.00
2023-03-29T16:00:59.981Z,10.07
2023-03-29T16:03:29.880Z,9.73
2023-03-29T16:05:57.143Z,8.37
2023-03-29T16:08:24.639Z,7.80
2023-03-29T16:10:51.734Z,9.87
2023-03-29T16:13:18.560Z,9.10
2023-03-29T16:15:46.070Z,7.40
2023-03-29T16:18:12.966Z,9.53
2023-03-29T16:20:39.856Z,9.73
2023-03-29T16:23:11.647Z,13.83
2023-03-29T16:25:40.049Z,19.07
2023-03-29T16:28:08.164Z,32.93
2023-03-29T16:30:36.155Z,11.30
2023-03-29T16:33:06.486Z,9.17
2023-03-29T16:35:34.735Z,55.53
2023-03-29T16:38:01.793Z,15.03
2023-03-29T16:40:28.745Z,19.13
2023-03-29T16:42:55.711Z,11.47
2023-03-29T16:45:22.610Z,25.50
2023-03-29T16:47:49.487Z,224.87
2023-03-29T16:50:19.046Z,35.00
2023-03-29T16:52:46.688Z,22.77
2023-03-29T16:55:13.803Z,13.70
2023-03-29T16:57:40.873Z,10.70
2023-03-29T17:00:17.234Z,10.00
2023-03-29T17:02:44.212Z,11.90
2023-03-29T17:05:11.947Z,24.07
2023-03-29T17:07:39.598Z,9.53
2023-03-29T17:10:10.320Z,11.17
2023-03-29T17:12:37.339Z,9.80
2023-03-29T17:15:05.402Z,16.20
2023-03-29T17:17:32.467Z,12.50
2023-03-29T17:19:59.415Z,8.70
2023-03-29T17:22:26.370Z,12.43
2023-03-29T17:24:53.351Z,11.17
2023-03-29T17:27:21.185Z,8.80
2023-03-29T17:29:49.058Z,9.43
2023-03-29T17:32:15.895Z,7.30
2023-03-29T17:34:42.883Z,10.77
2023-03-29T17:37:09.890Z,9.37
2023-03-29T17:39:38.288Z,10.40
2023-03-29T17:42:05.806Z,10.03
2023-03-29T17:44:33.501Z,10.13
2023-03-29T17:47:01.261Z,11.50
2023-03-29T17:49:28.284Z,11.33
2023-03-29T17:51:55.275Z,13.03
2023-03-29T17:54:22.396Z,11.37
2023-03-29T17:56:50.629Z,13.50
2023-03-29T17:59:17.835Z,10.70
2023-03-29T18:01:44.808Z,14.10
2023-03-29T18:04:11.775Z,15.70
2023-03-29T18:06:39.155Z,14.53
2023-03-29T18:09:06.070Z,9.27
2023-03-29T18:11:33.214Z,14.83
2023-03-29T18:14:00.558Z,11.80
2023-03-29T18:16:27.506Z,15.43
2023-03-29T18:18:54.341Z,11.27
2023-03-29T18:21:21.378Z,15.23
2023-03-29T18:23:49.060Z,9.80
2023-03-29T18:26:16.912Z,11.67
2023-03-29T18:28:47.439Z,12.93
2023-03-29T18:31:14.807Z,13.27
2023-03-29T18:33:41.716Z,13.10
2023-03-29T18:36:12.929Z,14.77
2023-03-29T18:38:40.877Z,12.63
2023-03-29T18:41:08.741Z,14.60
2023-03-29T18:43:36.121Z,16.57
2023-03-29T18:46:03.524Z,15.50
2023-03-29T18:48:31.198Z,16.10
2023-03-29T18:50:58.356Z,16.83
2023-03-29T18:53:25.237Z,14.17
2023-03-29T18:55:52.312Z,13.63
2023-03-29T18:58:20.527Z,15.60
2023-03-29T19:00:47.426Z,17.33
2023-03-29T19:03:14.375Z,13.17
2023-03-29T19:05:41.614Z,15.13
2023-03-29T19:08:09.293Z,18.37
2023-03-29T19:10:36.968Z,16.10
2023-03-29T19:13:04.490Z,18.63
2023-03-29T19:15:32.658Z,12.67
2023-03-29T19:17:59.828Z,13.43
2023-03-29T19:20:26.806Z,14.63
2023-03-29T19:22:53.793Z,15.13
2023-03-29T19:25:20.896Z,12.30
2023-03-29T19:27:48.023Z,12.17
2023-03-29T19:30:15.201Z,15.27
2023-03-29T19:32:42.160Z,17.47
2023-03-29T19:35:09.811Z,16.17
2023-03-29T19:37:36.734Z,17.17
2023-03-29T19:40:06.748Z,12.97
2023-03-29T19:42:37.849Z,15.53
2023-03-29T19:45:06.308Z,14.83
2023-03-29T19:47:33.422Z,14.73
2023-03-29T19:50:00.790Z,15.10
2023-03-29T19:52:28.277Z,11.87
2023-03-29T19:54:56.151Z,16.77
2023-03-29T19:57:23.985Z,14.83
2023-03-29T19:59:51.126Z,15.60
2023-03-29T20:02:18.087Z,12.20
2023-03-29T20:04:45.973Z,18.00
2023-03-29T20:07:13.260Z,16.67
2023-03-29T20:09:40.127Z,16.60
2023-03-29T20:12:07.054Z,17.10
2023-03-29T20:14:34.806Z,17.07
2023-03-29T20:17:01.757Z,22.40
2023-03-29T20:19:30.162Z,20.03
2023-03-29T20:21:57.892Z,20.07
2023-03-29T20:24:25.379Z,18.57
2023-03-29T20:26:52.757Z,29.87
2023-03-29T20:29:19.700Z,21.20
2023-03-29T20:31:46.832Z,20.03
2023-03-29T20:34:13.813Z,26.20
2023-03-29T20:36:40.883Z,20.73
2023-03-29T20:39:08.387Z,24.20
2023-03-29T20:41:38.484Z,19.93
2023-03-29T20:44:05.837Z,20.87
2023-03-29T20:46:36.002Z,18.20
2023-03-29T20:49:04.694Z,23.67
2023-03-29T20:51:32.084Z,18.50
2023-03-29T20:54:02.856Z,20.57
2023-03-29T20:56:30.193Z,21.10
2023-03-29T20:58:57.484Z,16.37
2023-03-29T21:01:24.502Z,22.57
2023-03-29T21:03:51.912Z,20.50
2023-03-29T21:06:19.547Z,16.90
2023-03-29T21:08:47.219Z,17.17
2023-03-29T21:11:15.540Z,16.77
2023-03-29T21:13:45.510Z,14.47
2023-03-29T21:16:13.180Z,14.43
2023-03-29T21:18:40.613Z,15.93
2023-03-29T21:21:08.177Z,17.17
2023-03-29T21:23:36.188Z,17.53
2023-03-29T21:26:03.923Z,18.47
2023-03-29T21:28:31.102Z,13.93
2023-03-29T21:30:58.031Z,15.60
2023-03-29T21:33:25.218Z,12.40
2023-03-29T21:35:52.176Z,13.97
2023-03-29T21:38:19.067Z,14.97
2023-03-29T21:40:46.193Z,14.73
2023-03-29T21:43:13.401Z,16.97
2023-03-29T21:45:40.332Z,16.00
2023-03-29T21:48:07.649Z,16.80
2023-03-29T21:50:34.705Z,11.80
2023-03-29T21:53:02.154Z,13.23
2023-03-29T21:55:28.983Z,12.03
2023-03-29T21:57:55.956Z,18.30
2023-03-29T22:00:22.832Z,12.23
2023-03-29T22:02:49.825Z,15.70
2023-03-29T22:05:16.857Z,18.00
2023-03-29T22:07:43.738Z,12.47
2023-03-29T22:10:12.024Z,12.60
2023-03-29T22:12:39.380Z,12.20
2023-03-29T22:15:06.622Z,9.90
2023-03-29T22:17:34.378Z,11.90
2023-03-29T22:20:02.729Z,10.00
2023-03-29T22:22:30.149Z,11.10
2023-03-29T22:24:57.256Z,12.93
2023-03-29T22:27:24.710Z,13.27
2023-03-29T22:29:51.701Z,12.93
2023-03-29T22:32:19.152Z,11.90
2023-03-29T22:34:46.425Z,11.50
2023-03-29T22:37:13.200Z,14.13
2023-03-29T22:39:40.597Z,11.93
2023-03-29T22:42:08.223Z,10.17
2023-03-29T22:44:35.852Z,11.60
2023-03-29T22:47:02.830Z,8.57
2023-03-29T22:49:30.323Z,8.63
2023-03-29T22:51:57.885Z,12.37
2023-03-29T22:54:25.356Z,16.40
2023-03-29T22:56:52.343Z,13.20
2023-03-29T22:59:19.382Z,13.53
2023-03-29T23:01:46.698Z,11.87
2023-03-29T23:04:14.336Z,8.87
2023-03-29T23:06:41.761Z,10.40
2023-03-29T23:09:10.070Z,10.60
2023-03-29T23:11:37.179Z,9.83
2023-03-29T23:14:04.860Z,11.03
2023-03-29T23:16:32.349Z,8.20
2023-03-29T23:19:00.112Z,11.57
2023-03-29T23:21:28.177Z,11.83
2023-03-29T23:23:55.128Z,9.60
2023-03-29T23:26:23.336Z,9.10
2023-03-29T23:28:52.107Z,9.73
2023-03-29T23:31:20.602Z,12.00
2023-03-29T23:33:47.981Z,11.57
2023-03-29T23:36:16.459Z,9.60
2023-03-29T23:38:45.312Z,9.43
2023-03-29T23:41:13.216Z,10.40
2023-03-29T23:43:41.433Z,10.23
2023-03-29T23:46:10.212Z,12.03
2023-03-29T23:48:38.789Z,8.77
2023-03-29T23:51:08.396Z,9.63
2023-03-29T23:53:36.108Z,11.77
2023-03-29T23:56:04.710Z,9.27
2023-03-29T23:58:33.834Z,10.67
